Time;durP1;ratioP1;P1;durP2;ratioP2;P2;SDS_P1;SDS_P2;PMS_P1;PMS_P2;Temp;Humidity;BMP_temperature;BMP_pressure;BME280_temperature;BME280_humidity;BME280_pressure;Samples;Min_cycle;Max_cycle;Signal;HPM_P1;HPM_P2
2022/04/09 00:01:54;;;;;;;1.33;0.87;;;;;;;1.39;100.00;151724.03;5088050;28;20437;-80
2022/04/09 00:04:30;;;;;;;0.90;0.70;;;;;;;1.44;100.00;151736.88;5080315;28;20457;-80
2022/04/09 00:07:06;;;;;;;1.37;1.00;;;;;;;1.46;100.00;151742.00;5082929;28;20442;-80
2022/04/09 00:09:43;;;;;;;0.97;0.67;;;;;;;1.41;100.00;151729.16;5086403;28;20453;-80
2022/04/09 00:12:19;;;;;;;1.20;0.87;;;;;;;1.45;100.00;151739.47;5087098;28;20437;-81
2022/04/09 00:14:56;;;;;;;1.40;0.93;;;;;;;1.48;100.00;151747.19;5071707;28;20810;-80
2022/04/09 00:17:37;;;;;;;1.07;0.90;;;;;;;1.47;100.00;151744.59;5072137;28;20846;-80
2022/04/09 00:20:18;;;;;;;1.00;0.80;;;;;;;1.57;100.00;151770.28;5087720;28;20531;-80
2022/04/09 00:22:55;;;;;;;0.90;0.67;;;;;;;1.63;100.00;151787.03;5086293;28;20460;-80
2022/04/09 00:25:32;;;;;;;1.70;0.90;;;;;;;1.73;100.00;151811.41;5063350;28;20761;-80
2022/04/09 00:28:07;;;;;;;1.43;1.00;;;;;;;1.75;100.00;151816.56;5069472;28;20477;-80
2022/04/09 00:30:43;;;;;;;1.53;1.03;;;;;;;1.66;100.00;151794.75;5080794;28;20445;-80
2022/04/09 00:33:18;;;;;;;1.50;1.20;;;;;;;1.62;100.00;151783.13;5071183;28;20567;-81
2022/04/09 00:35:55;;;;;;;1.50;1.10;;;;;;;1.63;100.00;151785.72;5071891;28;20445;-80
2022/04/09 00:38:31;;;;;;;1.33;1.07;;;;;;;1.62;100.00;151783.13;5071971;28;20468;-80
2022/04/09 00:41:11;;;;;;;1.60;1.33;;;;;;;1.58;100.00;151772.88;5085666;28;20426;-80
2022/04/09 00:43:46;;;;;;;1.63;1.30;;;;;;;1.56;100.00;151767.75;5067037;28;20499;-80
2022/04/09 00:46:22;;;;;;;1.97;1.53;;;;;;;1.54;100.00;151762.56;5067536;28;20445;-80
2022/04/09 00:48:57;;;;;;;2.00;1.60;;;;;;;1.59;100.00;151775.47;5084094;28;20444;-80
2022/04/09 00:51:35;;;;;;;1.87;1.57;;;;;;;1.65;100.00;151790.84;5086990;28;20440;-80
2022/04/09 00:54:12;;;;;;;1.57;1.30;;;;;;;1.54;100.00;151762.56;5070675;28;20444;-80
2022/04/09 00:56:51;;;;;;;1.73;1.30;;;;;;;1.61;100.00;151780.59;5087307;28;20482;-80
2022/04/09 00:59:30;;;;;;;2.20;1.70;;;;;;;1.65;100.00;151790.84;5084642;28;20468;-80
2022/04/09 01:02:06;;;;;;;1.30;1.03;;;;;;;1.64;100.00;151788.31;5085473;28;20776;-80
2022/04/09 01:04:42;;;;;;;1.30;1.00;;;;;;;1.66;100.00;151794.75;5084230;28;20461;-80
2022/04/09 01:07:18;;;;;;;1.23;1.00;;;;;;;1.64;100.00;151789.56;5085339;28;20998;-80
2022/04/09 01:09:54;;;;;;;1.17;1.00;;;;;;;1.72;100.00;151808.88;5072149;28;20451;-80
2022/04/09 01:12:32;;;;;;;1.60;1.30;;;;;;;1.74;100.00;151814.00;5068558;28;20433;-80
2022/04/09 01:15:09;;;;;;;2.00;1.20;;;;;;;1.74;100.00;151814.00;5068162;28;20442;-80
2022/04/09 01:17:45;;;;;;;1.37;1.27;;;;;;;1.76;100.00;151820.44;5065671;28;20469;-80
2022/04/09 01:20:22;;;;;;;1.70;1.57;;;;;;;1.75;100.00;151817.84;5070011;28;20800;-80
2022/04/09 01:23:02;;;;;;;1.27;1.13;;;;;;;1.85;100.00;151842.28;5066127;28;20528;-80
2022/04/09 01:25:38;;;;;;;1.60;1.40;;;;;;;1.85;100.00;151842.28;5068089;28;20449;-80
2022/04/09 01:28:15;;;;;;;1.80;1.20;;;;;;;1.84;100.00;151839.72;5068821;28;20821;-80
2022/04/09 01:30:51;;;;;;;2.57;1.67;;;;;;;1.83;100.00;151838.41;5065384;28;21006;-80
2022/04/09 01:33:27;;;;;;;1.83;1.53;;;;;;;1.80;100.00;151829.44;5074045;28;20445;-80
2022/04/09 01:36:03;;;;;;;3.10;2.10;;;;;;;1.77;100.00;151821.72;5070964;28;20443;-80
2022/04/09 01:38:41;;;;;;;2.43;1.90;;;;;;;1.78;100.00;151825.56;5068786;28;20476;-80
2022/04/09 01:41:17;;;;;;;3.17;2.20;;;;;;;1.70;100.00;151803.69;5062268;28;20465;-80
2022/04/09 01:44:12;;;;;;;2.30;1.60;;;;;;;1.67;100.00;151797.28;5072701;28;20437;-80
2022/04/09 01:46:48;;;;;;;1.90;1.70;;;;;;;1.77;100.00;151821.72;5083677;28;20457;-80
2022/04/09 01:49:25;;;;;;;2.40;1.73;;;;;;;1.83;100.00;151837.13;5072415;28;20437;-80
2022/04/09 01:52:01;;;;;;;2.00;1.67;;;;;;;1.87;100.00;151846.13;5073087;28;20466;-80
2022/04/09 01:54:38;;;;;;;2.70;1.80;;;;;;;1.85;100.00;151842.28;5066857;28;20437;-80
2022/04/09 01:57:15;;;;;;;2.10;1.57;;;;;;;1.89;100.00;151851.25;5089427;28;20852;-80
2022/04/09 01:59:51;;;;;;;3.40;2.27;;;;;;;1.81;100.00;151832.00;5076476;28;20480;-80
2022/04/09 02:02:27;;;;;;;3.03;2.23;;;;;;;1.87;100.00;151847.41;5072030;28;20428;-80
2022/04/09 02:05:06;;;;;;;2.53;1.77;;;;;;;1.88;100.00;151849.97;5085529;28;20451;-80
2022/04/09 02:07:42;;;;;;;2.30;1.60;;;;;;;1.93;100.00;151861.56;5068603;28;20444;-80
2022/04/09 02:10:20;;;;;;;2.70;1.90;;;;;;;1.84;100.00;151841.00;5078524;28;20449;-80
2022/04/09 02:12:56;;;;;;;5.00;2.30;;;;;;;1.94;100.00;151864.09;5069388;28;20441;-80
2022/04/09 02:15:31;;;;;;;2.97;2.20;;;;;;;1.90;100.00;151855.16;5073843;28;20445;-79
2022/04/09 02:18:07;;;;;;;3.30;2.70;;;;;;;1.93;100.00;151862.88;5090004;28;20480;-80
2022/04/09 02:20:43;;;;;;;4.00;2.70;;;;;;;1.91;100.00;151857.69;5072139;28;20445;-80
2022/04/09 02:23:18;;;;;;;4.70;2.63;;;;;;;1.89;100.00;151852.56;5092131;28;20449;-80
2022/04/09 02:25:56;;;;;;;2.47;2.00;;;;;;;1.96;100.00;151869.28;5069387;28;20840;-80
2022/04/09 02:28:56;;;;;;;3.13;2.57;;;;;;;1.94;100.00;151865.41;5069755;28;20434;-80
2022/04/09 02:31:32;;;;;;;3.63;2.60;;;;;;;1.91;100.00;151857.69;5079777;28;20448;-81
2022/04/09 02:34:08;;;;;;;2.83;2.43;;;;;;;1.94;100.00;151864.09;5071517;28;20477;-80
2022/04/09 02:36:45;;;;;;;4.27;2.47;;;;;;;1.93;100.00;151861.56;5072591;28;20440;-80
2022/04/09 02:39:21;;;;;;;4.63;3.10;;;;;;;1.90;100.00;151853.84;5073598;28;20472;-80
2022/04/09 02:41:59;;;;;;;3.07;2.70;;;;;;;1.91;100.00;151857.69;5072206;28;20476;-80
2022/04/09 02:44:35;;;;;;;4.27;2.83;;;;;;;1.94;100.00;151865.41;5071848;28;20447;-80
2022/04/09 02:47:10;;;;;;;3.80;2.80;;;;;;;1.95;100.00;151866.69;5068966;28;20469;-80
2022/04/09 02:49:46;;;;;;;6.13;2.93;;;;;;;1.98;100.00;151874.41;5069772;28;20478;-80
2022/04/09 02:52:23;;;;;;;6.30;2.43;;;;;;;2.01;100.00;151883.44;5063643;28;20449;-80
2022/04/09 02:54:58;;;;;;;3.90;2.90;;;;;;;1.96;100.00;151869.28;5073523;28;20574;-80
2022/04/09 02:57:37;;;;;;;2.67;2.17;;;;;;;1.94;100.00;151864.09;5067692;28;20445;-80
2022/04/09 03:00:14;;;;;;;3.73;2.63;;;;;;;1.97;100.00;151871.81;5073141;28;20979;-80
2022/04/09 03:02:51;;;;;;;2.77;2.50;;;;;;;1.97;100.00;151871.81;5073631;28;21621;-80
2022/04/09 03:05:33;;;;;;;3.17;2.40;;;;;;;1.94;100.00;151864.09;5075356;28;20435;-80
2022/04/09 03:08:08;;;;;;;2.73;2.20;;;;;;;1.92;100.00;151858.97;5070635;28;20525;-80
2022/04/09 03:10:44;;;;;;;3.17;2.57;;;;;;;1.91;100.00;151857.69;5070455;28;20433;-80
2022/04/09 03:13:21;;;;;;;2.20;2.00;;;;;;;1.97;100.00;151873.13;5073084;28;20440;-80
2022/04/09 03:15:57;;;;;;;7.10;2.83;;;;;;;1.98;100.00;151874.41;5068376;28;20438;-80
2022/04/09 03:18:32;;;;;;;3.10;2.07;;;;;;;1.95;100.00;151868.00;5089446;28;20480;-80
2022/04/09 03:21:08;;;;;;;3.80;2.10;;;;;;;2.01;100.00;151883.44;5071439;28;20480;-80
2022/04/09 03:23:46;;;;;;;2.40;1.87;;;;;;;1.98;100.00;151874.41;5068134;28;20453;-81
2022/04/09 03:26:22;;;;;;;2.80;2.17;;;;;;;2.00;100.00;151880.84;5088708;28;20809;-81
2022/04/09 03:29:05;;;;;;;2.97;2.40;;;;;;;2.01;100.00;151882.13;5070897;28;20548;-80
2022/04/09 03:31:42;;;;;;;4.07;3.00;;;;;;;1.99;100.00;151876.97;5066024;28;20433;-80
2022/04/09 03:34:20;;;;;;;3.40;2.90;;;;;;;1.99;100.00;151878.25;5070783;28;20457;-78
2022/04/09 03:36:56;;;;;;;3.13;2.73;;;;;;;1.99;100.00;151878.25;5069425;28;20502;-80
2022/04/09 03:39:32;;;;;;;3.43;2.40;;;;;;;1.99;100.00;151878.25;5070752;28;20457;-80
2022/04/09 03:42:08;;;;;;;6.53;3.17;;;;;;;2.03;100.00;151887.25;5068002;28;20424;-80
2022/04/09 03:44:46;;;;;;;4.73;3.70;;;;;;;2.00;100.00;151879.56;5067207;28;20492;-79
2022/04/09 03:47:22;;;;;;;4.30;3.43;;;;;;;1.98;100.00;151875.72;5074271;28;20974;-80
2022/04/09 03:50:22;;;;;;;5.20;3.67;;;;;;;2.03;100.00;151888.56;5068941;28;20440;-80
2022/04/09 03:53:00;;;;;;;6.47;4.37;;;;;;;2.06;100.00;151896.28;5066353;28;20440;-80
2022/04/09 03:55:36;;;;;;;7.40;5.63;;;;;;;2.10;100.00;151906.53;5074389;28;20433;-80
2022/04/09 03:58:15;;;;;;;5.90;4.90;;;;;;;2.08;100.00;151901.41;5087003;28;20807;-80
2022/04/09 04:00:52;;;;;;;6.77;5.10;;;;;;;2.07;100.00;151898.81;5068100;28;20433;-80
2022/04/09 04:03:34;;;;;;;6.47;4.77;;;;;;;2.12;100.00;151910.44;5072767;28;20863;-80
2022/04/09 04:06:12;;;;;;;9.00;6.00;;;;;;;2.09;100.00;151903.94;5070375;28;20434;-80
2022/04/09 04:08:48;;;;;;;8.27;6.00;;;;;;;2.09;100.00;151902.72;5069671;28;20470;-80
2022/04/09 04:11:27;;;;;;;7.70;6.30;;;;;;;2.10;100.00;151906.53;5071601;28;20798;-80
2022/04/09 04:14:04;;;;;;;7.77;6.00;;;;;;;2.07;100.00;151897.53;5070314;28;20452;-80
2022/04/09 04:16:42;;;;;;;8.83;6.33;;;;;;;2.05;100.00;151893.69;5074466;28;20454;-80
2022/04/09 04:19:18;;;;;;;10.87;7.20;;;;;;;2.09;100.00;151903.94;5083176;28;20476;-80
2022/04/09 04:21:56;;;;;;;10.20;6.70;;;;;;;2.13;100.00;151914.25;5068399;28;20444;-80
2022/04/09 04:24:32;;;;;;;9.00;6.70;;;;;;;2.08;100.00;151900.13;5071644;28;20444;-80
2022/04/09 04:27:08;;;;;;;10.90;7.00;;;;;;;2.08;100.00;151901.41;5070976;28;20429;-80
2022/04/09 04:29:46;;;;;;;9.20;6.90;;;;;;;2.10;100.00;151906.53;5071114;28;20445;-80
2022/04/09 04:32:23;;;;;;;8.70;5.80;;;;;;;2.11;100.00;151907.84;5081696;28;20806;-80
2022/04/09 04:34:59;;;;;;;9.37;6.57;;;;;;;2.07;100.00;151898.81;5067809;28;20470;-80
2022/04/09 04:37:38;;;;;;;11.47;7.20;;;;;;;2.04;100.00;151889.84;5070292;28;20883;-80
2022/04/09 04:40:15;;;;;;;10.63;8.00;;;;;;;1.99;100.00;151876.97;5071257;28;20870;-80
2022/04/09 04:42:55;;;;;;;10.43;7.60;;;;;;;1.98;100.00;151874.41;5067941;28;20536;-80
2022/04/09 04:45:33;;;;;;;10.03;7.17;;;;;;;1.96;100.00;151870.53;5065218;28;20449;-80
2022/04/09 04:48:13;;;;;;;13.13;8.07;;;;;;;2.00;100.00;151879.56;5070575;28;20472;-80
2022/04/09 04:50:49;;;;;;;9.60;7.00;;;;;;;1.98;100.00;151875.72;5071240;28;20473;-80
2022/04/09 04:53:25;;;;;;;11.13;8.07;;;;;;;1.95;100.00;151868.00;5070488;28;20448;-80
2022/04/09 04:56:05;;;;;;;10.60;7.40;;;;;;;1.94;100.00;151865.41;5065633;28;20429;-80
2022/04/09 04:58:50;;;;;;;10.50;7.10;;;;;;;1.92;100.00;151858.97;5065085;28;21062;-80
2022/04/09 05:01:27;;;;;;;9.23;6.50;;;;;;;1.92;100.00;151860.28;5071239;28;20482;-80
2022/04/09 05:04:10;;;;;;;9.60;7.57;;;;;;;1.94;100.00;151864.09;5069862;28;20437;-80
2022/04/09 05:06:52;;;;;;;13.00;7.67;;;;;;;1.91;100.00;151857.69;5087511;28;20437;-80
2022/04/09 05:09:35;;;;;;;9.70;6.93;;;;;;;1.92;100.00;151858.97;5067172;28;20499;-80
2022/04/09 05:12:11;;;;;;;9.77;7.43;;;;;;;1.98;100.00;151874.41;5076419;28;20530;-80
2022/04/09 05:14:52;;;;;;;12.57;7.80;;;;;;;1.97;100.00;151873.13;5075782;28;20556;-80
2022/04/09 05:17:30;;;;;;;10.23;7.50;;;;;;;1.99;100.00;151878.25;5070156;28;20448;-78
2022/04/09 05:20:10;;;;;;;10.87;7.60;;;;;;;1.99;100.00;151878.25;5070078;28;20527;-80
2022/04/09 05:22:47;;;;;;;11.43;7.97;;;;;;;1.97;100.00;151871.81;5067133;28;20474;-80
2022/04/09 05:25:25;;;;;;;10.70;7.00;;;;;;;2.04;100.00;151891.09;5075899;28;20425;-80
2022/04/09 05:28:07;;;;;;;11.67;7.97;;;;;;;2.06;100.00;151896.28;5074312;28;20846;-80
2022/04/09 05:30:50;;;;;;;11.67;8.07;;;;;;;2.10;100.00;151905.25;5070918;28;20476;-79
2022/04/09 05:33:25;;;;;;;9.50;6.80;;;;;;;2.10;100.00;151905.25;5074556;28;20445;-80
2022/04/09 05:36:07;;;;;;;9.80;7.13;;;;;;;2.11;100.00;151909.13;5071513;28;20481;-79
2022/04/09 05:38:43;;;;;;;9.70;7.10;;;;;;;2.17;100.00;151924.53;5072428;28;20942;-79
2022/04/09 05:41:19;;;;;;;12.70;7.87;;;;;;;2.18;100.00;151927.13;5075035;28;20437;-79
2022/04/09 05:43:55;;;;;;;11.80;7.00;;;;;;;2.25;100.00;151943.84;5069236;28;21050;-79
2022/04/09 05:46:33;;;;;;;9.73;7.40;;;;;;;2.27;100.00;151948.97;5073131;28;20848;-79
2022/04/09 05:49:09;;;;;;;9.10;7.13;;;;;;;2.41;100.00;151986.25;5071140;28;20540;-78
2022/04/09 05:51:49;;;;;;;12.20;7.70;;;;;;;2.59;100.00;152031.28;5073422;28;20490;-78
2022/04/09 05:54:25;;;;;;;11.43;7.90;;;;;;;2.80;100.00;152084.03;5075262;28;20539;-78
2022/04/09 05:57:05;;;;;;;11.73;7.70;;;;;;;3.01;100.00;152138.06;5069457;28;20477;-79
2022/04/09 05:59:44;;;;;;;12.40;8.07;;;;;;;3.24;100.00;152197.22;5073107;28;20469;-78
2022/04/09 06:02:27;;;;;;;9.43;7.83;;;;;;;3.48;100.00;152257.72;5075315;28;20435;-78
2022/04/09 06:05:03;;;;;;;10.97;7.67;;;;;;;3.65;100.00;152302.75;5072122;28;20639;-79
2022/04/09 06:07:41;;;;;;;12.87;8.20;;;;;;;3.79;100.00;152336.22;5070137;28;20464;-78
2022/04/09 06:10:19;;;;;;;9.60;7.83;;;;;;;3.83;100.00;152346.56;5075127;28;20985;-79
2022/04/09 06:12:56;;;;;;;9.50;6.80;;;;;;;3.79;100.00;152336.22;5071109;28;20461;-79
2022/04/09 06:15:35;;;;;;;9.77;7.17;;;;;;;3.87;100.00;152358.13;5082625;28;20960;-78
2022/04/09 06:18:16;;;;;;;8.40;7.10;;;;;;;4.05;100.00;152403.22;5073622;28;20448;-78
2022/04/09 06:20:52;;;;;;;9.47;6.83;;;;;;;4.20;100.00;152441.84;5069486;28;20461;-78
2022/04/09 06:23:30;;;;;;;8.97;6.30;;;;;;;4.47;100.00;152511.41;5072800;28;20539;-79
2022/04/09 06:26:07;;;;;;;8.60;7.20;;;;;;;4.68;100.00;152565.53;5071523;28;20498;-79
2022/04/09 06:28:45;;;;;;;9.80;6.97;;;;;;;4.97;100.00;152637.69;5071976;28;20445;-80
2022/04/09 06:31:21;;;;;;;8.37;6.43;;;;;;;5.08;100.00;152666.03;5069461;28;20441;-79
2022/04/09 06:33:59;;;;;;;9.20;6.67;;;;;;;5.29;100.00;152720.19;5088779;28;20468;-77
2022/04/09 06:36:35;;;;;;;7.80;6.40;;;;;;;5.48;100.00;152770.44;5080958;28;20437;-79
2022/04/09 06:39:12;;;;;;;13.93;6.57;;;;;;;5.60;100.00;152798.81;5072166;28;20444;-79
2022/04/09 06:41:49;;;;;;;10.27;7.10;;;;;;;5.70;100.00;152825.88;5090254;28;20486;-79
2022/04/09 06:44:31;;;;;;;7.80;6.10;;;;;;;5.55;100.00;152787.22;5071292;28;20445;-79
2022/04/09 06:47:18;;;;;;;7.40;6.30;;;;;;;5.77;100.00;152843.94;5077199;28;21006;-79
2022/04/09 06:50:06;;;;;;;7.10;6.00;;;;;;;5.80;100.00;152851.66;5083704;28;20442;-79
2022/04/09 06:52:43;;;;;;;6.70;6.00;;;;;;;5.87;100.00;152868.50;5064809;28;20441;-79
2022/04/09 06:55:32;;;;;;;8.43;6.00;;;;;;;6.07;100.00;152921.38;5071160;28;20446;-79
2022/04/09 06:58:09;;;;;;;7.97;5.93;;;;;;;6.12;100.00;152934.28;5075287;28;20429;-79
2022/04/09 07:00:45;;;;;;;9.10;7.07;;;;;;;6.19;100.00;152951.06;5069501;28;20461;-78
2022/04/09 07:03:21;;;;;;;9.53;6.03;;;;;;;6.14;100.00;152939.44;5086250;28;20444;-76
2022/04/09 07:05:56;;;;;;;6.40;5.40;;;;;;;5.72;100.00;152829.78;5091094;28;20425;-78
2022/04/09 07:08:32;;;;;;;7.23;5.67;;;;;;;5.61;100.00;152802.72;5087331;28;20448;-78
2022/04/09 07:11:09;;;;;;;9.77;5.80;;;;;;;5.65;100.00;152813.00;5083308;28;20438;-78
2022/04/09 07:13:44;;;;;;;7.53;6.00;;;;;;;5.68;100.00;152820.75;5090117;28;20437;-78
2022/04/09 07:16:20;;;;;;;6.33;5.10;;;;;;;5.89;100.00;152874.97;5061535;28;20453;-78
2022/04/09 07:18:56;;;;;;;8.80;6.20;;;;;;;5.94;100.00;152887.84;5073848;28;20445;-78
2022/04/09 07:21:31;;;;;;;9.87;6.43;;;;;;;6.24;100.00;152962.66;5090023;28;20884;-78
2022/04/09 07:24:07;;;;;;;6.13;5.47;;;;;;;6.56;100.00;153045.25;5068515;28;20448;-78
2022/04/09 07:26:44;;;;;;;6.87;5.43;;;;;;;6.78;100.00;153102.03;5088588;28;20432;-78
2022/04/09 07:29:20;;;;;;;6.43;5.50;;;;;;;6.94;100.00;153143.34;5073031;28;20535;-78
2022/04/09 07:31:55;;;;;;;8.97;6.03;;;;;;;7.28;100.00;153231.13;5082922;28;20524;-79
2022/04/09 07:34:37;;;;;;;8.03;5.73;;;;;;;7.32;100.00;153241.47;5086028;28;20445;-79
2022/04/09 07:37:13;;;;;;;12.30;6.23;;;;;;;7.58;100.00;153307.34;5081564;28;20540;-77
2022/04/09 07:39:48;;;;;;;6.50;5.60;;;;;;;7.66;99.56;153328.00;5087479;28;20511;-79
2022/04/09 07:42:25;;;;;;;8.10;5.40;;;;;;;7.93;98.64;153396.47;5089345;28;20887;-78
2022/04/09 07:45:01;;;;;;;8.27;6.37;;;;;;;7.98;96.60;153409.41;5086511;28;20450;-79
2022/04/09 07:47:36;;;;;;;8.10;5.83;;;;;;;7.97;95.87;153408.09;5072119;28;20472;-79
2022/04/09 07:50:13;;;;;;;6.73;5.07;;;;;;;7.93;95.55;153397.78;5069258;28;20449;-79
2022/04/09 07:52:53;;;;;;;5.63;4.87;;;;;;;7.90;94.66;153388.72;5068905;28;20527;-79
2022/04/09 07:55:30;;;;;;;6.37;5.47;;;;;;;7.95;96.92;153401.63;5074153;28;20778;-79
2022/04/09 07:58:08;;;;;;;6.00;4.90;;;;;;;7.94;95.10;153399.09;5072362;28;20433;-79
2022/04/09 08:00:45;;;;;;;4.77;4.20;;;;;;;8.03;99.92;153422.31;5072656;28;20503;-79
2022/04/09 08:03:21;;;;;;;4.63;3.93;;;;;;;7.76;95.14;153352.53;5084432;28;20766;-79
2022/04/09 08:05:57;;;;;;;6.77;5.10;;;;;;;7.58;94.73;153306.03;5066835;28;20437;-80
2022/04/09 08:08:33;;;;;;;7.70;5.27;;;;;;;7.30;95.39;153235.03;5083337;28;20452;-80
2022/04/09 08:11:10;;;;;;;5.90;5.20;;;;;;;6.97;94.81;153151.09;5087040;28;20449;-77
2022/04/09 08:13:47;;;;;;;6.43;4.40;;;;;;;6.69;99.44;153080.13;5073473;28;20449;-77
2022/04/09 08:16:25;;;;;;;6.13;4.23;;;;;;;6.51;97.96;153033.63;5083634;28;20441;-77
2022/04/09 08:19:02;;;;;;;6.53;4.77;;;;;;;6.50;98.60;153029.75;5070263;28;20453;-77
2022/04/09 08:21:37;;;;;;;6.47;5.47;;;;;;;6.28;95.90;152972.97;5085678;28;20466;-77
2022/04/09 08:24:13;;;;;;;5.20;4.50;;;;;;;6.24;98.91;152963.97;5089292;28;20456;-77
2022/04/09 08:26:48;;;;;;;5.90;4.77;;;;;;;6.14;97.83;152939.44;5083637;28;20498;-77
2022/04/09 08:29:25;;;;;;;6.60;4.60;;;;;;;6.05;96.95;152916.25;5076370;28;20428;-77
2022/04/09 08:32:01;;;;;;;7.00;5.00;;;;;;;5.96;100.00;152893.00;5083515;28;20448;-77
2022/04/09 08:34:37;;;;;;;7.70;4.70;;;;;;;5.84;100.00;152862.00;5070618;28;20445;-78
2022/04/09 08:37:13;;;;;;;8.60;4.30;;;;;;;5.80;98.96;152850.44;5083041;28;20425;-77
2022/04/09 08:39:51;;;;;;;7.43;4.90;;;;;;;5.87;100.00;152868.50;5087567;28;20437;-77
2022/04/09 08:42:27;;;;;;;6.90;4.97;;;;;;;5.85;100.00;152864.63;5073137;28;20426;-77
2022/04/09 08:45:05;;;;;;;6.73;4.80;;;;;;;5.87;100.00;152868.50;5086660;28;20433;-77
2022/04/09 08:47:42;;;;;;;7.50;3.90;;;;;;;6.04;98.66;152913.63;5069227;28;20473;-77
2022/04/09 08:50:19;;;;;;;4.50;3.97;;;;;;;6.01;98.74;152905.88;5084908;28;20591;-77
2022/04/09 08:52:55;;;;;;;5.53;4.63;;;;;;;5.95;98.86;152890.44;5083298;28;20425;-77
2022/04/09 08:55:30;;;;;;;5.87;4.03;;;;;;;5.85;97.34;152864.63;5068945;28;20461;-76
2022/04/09 08:58:06;;;;;;;5.90;4.30;;;;;;;5.79;98.05;152847.81;5067652;28;20442;-76
2022/04/09 09:00:45;;;;;;;7.03;4.30;;;;;;;5.76;98.11;152840.06;5084947;28;21030;-78
2022/04/09 09:03:21;;;;;;;6.50;4.23;;;;;;;5.68;98.06;152820.75;5062631;28;20442;-76
2022/04/09 09:05:57;;;;;;;5.50;4.30;;;;;;;5.63;100.00;152807.84;5059725;28;20481;-78
2022/04/09 09:08:37;;;;;;;5.93;4.27;;;;;;;5.67;100.00;152818.16;5069860;28;20459;-78
2022/04/09 09:11:13;;;;;;;11.03;5.07;;;;;;;5.69;100.00;152822.03;5084286;28;20434;-78
2022/04/09 09:13:50;;;;;;;6.10;4.33;;;;;;;5.86;99.38;152867.22;5069493;28;20548;-78
2022/04/09 09:16:29;;;;;;;8.37;4.57;;;;;;;6.02;100.00;152907.19;5080025;28;20424;-78
2022/04/09 09:19:06;;;;;;;4.70;3.90;;;;;;;6.06;100.00;152918.78;5058952;28;20715;-78
2022/04/09 09:21:52;;;;;;;5.87;4.60;;;;;;;6.44;100.00;153014.28;5068912;28;20461;-78
2022/04/09 09:24:29;;;;;;;5.60;4.63;;;;;;;6.49;99.59;153027.16;5065032;28;20840;-78
2022/04/09 09:27:05;;;;;;;6.30;4.90;;;;;;;6.49;100.00;153027.16;5067414;28;20440;-78
2022/04/09 09:29:44;;;;;;;4.63;3.93;;;;;;;6.59;99.75;153053.00;5068883;28;20464;-78
2022/04/09 09:32:25;;;;;;;5.47;4.33;;;;;;;6.52;97.91;153034.91;5084267;28;20440;-78
2022/04/09 09:35:02;;;;;;;5.70;3.97;;;;;;;6.46;96.12;153020.72;5085777;28;20433;-78
2022/04/09 09:37:39;;;;;;;6.93;4.00;;;;;;;6.62;96.17;153060.72;5086871;28;20441;-78
2022/04/09 09:40:31;;;;;;;4.70;3.60;;;;;;;6.63;93.81;153063.31;5066454;28;20948;-78
2022/04/09 09:43:14;;;;;;;5.83;4.87;;;;;;;6.61;95.72;153058.16;5082326;28;20492;-78
2022/04/09 09:45:51;;;;;;;5.33;3.90;;;;;;;6.56;95.08;153045.25;5082728;28;20774;-78
2022/04/09 09:48:29;;;;;;;4.87;4.37;;;;;;;6.66;97.37;153071.06;5072315;28;20476;-77
2022/04/09 09:51:05;;;;;;;5.83;4.50;;;;;;;6.75;97.40;153094.31;5087623;28;20778;-77
2022/04/09 09:53:41;;;;;;;5.47;4.13;;;;;;;6.86;97.57;153122.69;5089297;28;20448;-77
2022/04/09 09:56:35;;;;;;;4.70;3.30;;;;;;;7.07;95.43;153176.91;5086419;28;20523;-77
2022/04/09 09:59:12;;;;;;;6.37;4.30;;;;;;;7.14;93.38;153193.72;5074443;28;20791;-78
2022/04/09 10:01:48;;;;;;;7.90;4.30;;;;;;;6.93;93.57;153140.78;5081859;28;20461;-78
2022/04/09 10:04:25;;;;;;;5.03;3.80;;;;;;;6.85;89.53;153120.13;5069830;28;20448;-77
2022/04/09 10:07:01;;;;;;;8.60;4.60;;;;;;;6.98;96.30;153153.69;5083349;28;20453;-77
2022/04/09 10:09:36;;;;;;;7.70;4.63;;;;;;;7.12;91.22;153188.56;5077574;28;20442;-78
2022/04/09 10:12:13;;;;;;;5.27;4.10;;;;;;;7.10;90.12;153184.66;5085747;28;20449;-77
2022/04/09 10:14:51;;;;;;;8.27;3.80;;;;;;;7.24;88.67;153219.53;5071639;28;20524;-78
2022/04/09 10:17:28;;;;;;;5.30;3.90;;;;;;;7.27;90.37;153228.56;5089366;28;20786;-78
2022/04/09 10:20:06;;;;;;;4.67;3.70;;;;;;;7.24;91.92;153220.81;5087116;28;21041;-77
2022/04/09 10:22:44;;;;;;;7.53;3.73;;;;;;;7.06;90.53;153174.34;5070683;28;20843;-78
2022/04/09 10:25:25;;;;;;;4.70;2.93;;;;;;;7.28;86.94;153229.88;5072708;28;20448;-77
2022/04/09 10:28:03;;;;;;;5.63;4.10;;;;;;;7.30;86.17;153236.34;5084466;28;20469;-77
2022/04/09 10:30:40;;;;;;;4.87;3.43;;;;;;;7.08;87.32;153179.50;5070844;28;20446;-77
2022/04/09 10:33:23;;;;;;;7.00;3.60;;;;;;;6.88;88.75;153126.59;5088692;28;20468;-78
2022/04/09 10:36:02;;;;;;;4.37;3.47;;;;;;;6.84;91.08;153117.53;5088436;28;20433;-78
2022/04/09 10:38:40;;;;;;;6.10;2.77;;;;;;;6.93;90.32;153140.78;5071043;28;20742;-78
2022/04/09 10:41:27;;;;;;;4.30;3.40;;;;;;;6.92;86.33;153138.19;5072493;28;20472;-77
2022/04/09 10:44:02;;;;;;;5.43;3.10;;;;;;;7.00;87.47;153157.53;5070215;28;20477;-77
2022/04/09 10:46:52;;;;;;;5.77;3.70;;;;;;;7.02;86.70;153164.00;5074011;28;20544;-76
2022/04/09 10:49:31;;;;;;;6.20;3.80;;;;;;;7.10;88.96;153184.66;5047691;28;20535;-78
2022/04/09 10:52:14;;;;;;;3.37;2.90;;;;;;;7.08;83.25;153178.19;5031967;28;20513;-78
2022/04/09 10:55:31;;;;;;;6.27;3.23;;;;;;;7.11;90.06;153185.94;5028483;28;20471;-77
2022/04/09 10:58:10;;;;;;;5.13;3.03;;;;;;;7.08;84.62;153178.19;5046733;28;20896;-78
2022/04/09 11:00:46;;;;;;;6.10;3.50;;;;;;;6.97;88.18;153149.78;5032666;28;20471;-78
2022/04/09 11:03:34;;;;;;;5.53;2.97;;;;;;;6.87;82.98;153125.28;5029642;28;21011;-77
2022/04/09 11:06:38;;;;;;;3.90;2.67;;;;;;;6.90;84.70;153131.72;5032120;28;20778;-77
2022/04/09 11:09:15;;;;;;;5.63;3.37;;;;;;;7.10;82.31;153184.66;5048055;28;20451;-79
2022/04/09 11:12:01;;;;;;;5.40;3.20;;;;;;;7.07;83.88;153176.91;5048409;28;20435;-80
2022/04/09 11:14:48;;;;;;;3.73;2.70;;;;;;;7.03;82.92;153166.59;5051399;28;20447;-79
2022/04/09 11:17:30;;;;;;;3.80;2.80;;;;;;;7.10;86.31;153184.66;5033150;28;20438;-79
2022/04/09 11:20:07;;;;;;;4.00;2.90;;;;;;;7.11;86.48;153187.25;5031392;28;20440;-79
2022/04/09 11:22:43;;;;;;;5.63;2.90;;;;;;;7.22;84.97;153214.38;5032648;28;20479;-79
2022/04/09 11:25:24;;;;;;;5.33;3.80;;;;;;;7.24;89.20;153219.53;5046894;28;20777;-79
2022/04/09 11:28:05;;;;;;;3.40;2.67;;;;;;;7.35;83.38;153247.94;5043771;28;20787;-77
2022/04/09 11:30:54;;;;;;;5.03;2.67;;;;;;;7.38;81.97;153254.41;5042807;28;20432;-79
2022/04/09 11:33:31;;;;;;;5.90;3.30;;;;;;;7.34;85.12;153245.34;5043284;28;20454;-79
2022/04/09 11:36:07;;;;;;;4.57;2.77;;;;;;;7.14;80.06;153195.00;5039738;28;20420;-79
2022/04/09 11:38:43;;;;;;;3.57;2.83;;;;;;;7.09;85.79;153182.09;5047879;28;20443;-79
2022/04/09 11:41:23;;;;;;;6.13;2.70;;;;;;;7.08;80.66;153178.19;5044829;28;20474;-79
2022/04/09 11:44:00;;;;;;;4.50;3.60;;;;;;;6.98;82.47;153153.69;5033858;28;20476;-79
2022/04/09 11:46:44;;;;;;;4.57;3.00;;;;;;;6.97;84.30;153151.09;5045793;28;20426;-79
2022/04/09 11:49:20;;;;;;;2.80;2.37;;;;;;;7.00;82.04;153158.84;5094965;28;20449;-79
2022/04/09 11:51:57;;;;;;;5.60;2.83;;;;;;;7.03;78.35;153165.28;5084465;28;20436;-79
2022/04/09 11:54:34;;;;;;;3.60;2.57;;;;;;;6.82;77.85;153111.06;5074742;28;20437;-79
2022/04/09 11:57:23;;;;;;;4.13;2.60;;;;;;;6.95;83.78;153145.94;5084277;28;20434;-79
2022/04/09 11:59:59;;;;;;;4.33;2.80;;;;;;;7.11;82.75;153187.25;5086619;28;20441;-79
2022/04/09 12:02:37;;;;;;;4.67;3.47;;;;;;;7.25;79.18;153222.13;5068617;28;20456;-79
2022/04/09 12:05:13;;;;;;;4.27;2.97;;;;;;;7.25;76.95;153223.38;5085636;28;20474;-78
2022/04/09 12:08:16;;;;;;;6.33;3.30;;;;;;;7.46;80.09;153275.06;5072396;28;20437;-79
2022/04/09 12:10:53;;;;;;;4.30;3.00;;;;;;;7.61;82.86;153315.09;5059400;28;21368;-79
2022/04/09 12:13:34;;;;;;;3.73;2.90;;;;;;;7.68;81.22;153333.16;5066880;28;20453;-79
2022/04/09 12:16:16;;;;;;;3.70;3.23;;;;;;;7.69;80.38;153335.75;5092334;28;20433;-79
2022/04/09 12:18:51;;;;;;;4.60;3.57;;;;;;;7.69;79.31;153335.75;5079169;28;20967;-79